Terminal Aerodrome Forecast
Issued by NWS

Home | Current Version | Previous Version | Text Only | Print | Product List | Glossary On
Versions: 1 2 3 4 5 6 7 8 9 10 11 12 13 14 15 16 17
442
FTUS46 KPDT 241720
TAFRDM
TAF
KRDM 241720Z 2418/2518 VRB04KT P6SM BKN035 BKN100
     FM242100 33010G17KT P6SM BKN050 BKN100
     FM250400 31005KT P6SM SCT050 BKN100
     FM250800 20004KT P6SM SCT100=

USA.gov is the U.S. government's official web portal to all federal, state and local government web resources and services.